sensor_id;sensor_type;location;lat;lon;timestamp;temperature;humidity
20174;DHT22;10246;50.620;7.232;2023-07-29T00:01:47;20.60;20.80
20174;DHT22;10246;50.620;7.232;2023-07-29T00:04:15;20.60;19.90
20174;DHT22;10246;50.620;7.232;2023-07-29T00:06:41;20.50;19.80
20174;DHT22;10246;50.620;7.232;2023-07-29T00:09:08;20.50;19.50
20174;DHT22;10246;50.620;7.232;2023-07-29T00:11:36;20.50;19.60
20174;DHT22;10246;50.620;7.232;2023-07-29T00:14:03;20.60;19.20
20174;DHT22;10246;50.620;7.232;2023-07-29T00:16:30;20.60;19.20
20174;DHT22;10246;50.620;7.232;2023-07-29T00:18:56;20.60;19.40
20174;DHT22;10246;50.620;7.232;2023-07-29T00:21:23;20.60;19.20
20174;DHT22;10246;50.620;7.232;2023-07-29T00:23:50;20.60;19.20
20174;DHT22;10246;50.620;7.232;2023-07-29T00:26:17;20.60;19.40
20174;DHT22;10246;50.620;7.232;2023-07-29T00:28:45;20.60;19.60
20174;DHT22;10246;50.620;7.232;2023-07-29T00:31:11;20.50;19.60
20174;DHT22;10246;50.620;7.232;2023-07-29T00:33:38;20.50;19.90
20174;DHT22;10246;50.620;7.232;2023-07-29T00:36:05;20.50;20.00
20174;DHT22;10246;50.620;7.232;2023-07-29T00:38:31;20.60;19.80
20174;DHT22;10246;50.620;7.232;2023-07-29T00:40:58;20.50;20.30
20174;DHT22;10246;50.620;7.232;2023-07-29T00:43:25;20.40;20.60
20174;DHT22;10246;50.620;7.232;2023-07-29T00:45:53;20.40;20.60
20174;DHT22;10246;50.620;7.232;2023-07-29T00:48:22;20.40;20.70
20174;DHT22;10246;50.620;7.232;2023-07-29T00:50:49;20.40;20.90
20174;DHT22;10246;50.620;7.232;2023-07-29T00:53:16;20.50;20.40
20174;DHT22;10246;50.620;7.232;2023-07-29T00:55:43;20.40;21.00
20174;DHT22;10246;50.620;7.232;2023-07-29T00:58:10;20.40;21.60
20174;DHT22;10246;50.620;7.232;2023-07-29T01:00:37;20.40;21.90
20174;DHT22;10246;50.620;7.232;2023-07-29T01:03:05;20.40;21.90
20174;DHT22;10246;50.620;7.232;2023-07-29T01:05:36;20.40;22.00
20174;DHT22;10246;50.620;7.232;2023-07-29T01:08:11;20.40;22.00
20174;DHT22;10246;50.620;7.232;2023-07-29T01:10:48;20.40;21.80
20174;DHT22;10246;50.620;7.232;2023-07-29T01:13:24;20.40;21.70
20174;DHT22;10246;50.620;7.232;2023-07-29T01:15:55;20.40;22.00
20174;DHT22;10246;50.620;7.232;2023-07-29T01:18:29;20.40;21.80
20174;DHT22;10246;50.620;7.232;2023-07-29T01:20:59;20.50;21.70
20174;DHT22;10246;50.620;7.232;2023-07-29T01:23:29;20.50;21.70
20174;DHT22;10246;50.620;7.232;2023-07-29T01:25:55;20.50;21.50
20174;DHT22;10246;50.620;7.232;2023-07-29T01:28:22;20.40;22.00
20174;DHT22;10246;50.620;7.232;2023-07-29T01:31:01;20.50;22.60
20174;DHT22;10246;50.620;7.232;2023-07-29T01:33:34;20.50;22.40
20174;DHT22;10246;50.620;7.232;2023-07-29T01:36:03;20.40;22.60
20174;DHT22;10246;50.620;7.232;2023-07-29T01:38:35;20.40;22.80
20174;DHT22;10246;50.620;7.232;2023-07-29T01:41:03;20.40;23.20
20174;DHT22;10246;50.620;7.232;2023-07-29T01:43:31;20.30;23.70
20174;DHT22;10246;50.620;7.232;2023-07-29T01:45:58;20.30;23.80
20174;DHT22;10246;50.620;7.232;2023-07-29T01:48:25;20.30;24.30
20174;DHT22;10246;50.620;7.232;2023-07-29T01:50:53;20.30;24.10
20174;DHT22;10246;50.620;7.232;2023-07-29T01:53:19;20.30;24.20
20174;DHT22;10246;50.620;7.232;2023-07-29T01:55:47;20.40;24.60
20174;DHT22;10246;50.620;7.232;2023-07-29T01:58:14;20.40;23.70
20174;DHT22;10246;50.620;7.232;2023-07-29T02:00:41;20.40;23.60
20174;DHT22;10246;50.620;7.232;2023-07-29T02:03:08;20.30;24.00
20174;DHT22;10246;50.620;7.232;2023-07-29T02:05:34;20.40;23.90
20174;DHT22;10246;50.620;7.232;2023-07-29T02:08:01;20.40;24.10
20174;DHT22;10246;50.620;7.232;2023-07-29T02:10:28;20.30;24.00
20174;DHT22;10246;50.620;7.232;2023-07-29T02:12:56;20.30;23.90
20174;DHT22;10246;50.620;7.232;2023-07-29T02:15:23;20.30;23.80
20174;DHT22;10246;50.620;7.232;2023-07-29T02:17:50;20.30;23.80
20174;DHT22;10246;50.620;7.232;2023-07-29T02:20:17;20.30;23.30
20174;DHT22;10246;50.620;7.232;2023-07-29T02:22:43;20.30;23.40
20174;DHT22;10246;50.620;7.232;2023-07-29T02:25:10;20.30;23.00
20174;DHT22;10246;50.620;7.232;2023-07-29T02:27:37;20.30;23.00
20174;DHT22;10246;50.620;7.232;2023-07-29T02:30:06;20.40;23.30
20174;DHT22;10246;50.620;7.232;2023-07-29T02:32:35;20.40;23.20
20174;DHT22;10246;50.620;7.232;2023-07-29T02:35:01;20.40;22.60
20174;DHT22;10246;50.620;7.232;2023-07-29T02:37:28;20.40;22.80
20174;DHT22;10246;50.620;7.232;2023-07-29T02:39:55;20.30;22.80
20174;DHT22;10246;50.620;7.232;2023-07-29T02:42:21;20.30;22.90
20174;DHT22;10246;50.620;7.232;2023-07-29T02:44:48;20.30;23.10
20174;DHT22;10246;50.620;7.232;2023-07-29T02:47:16;20.30;22.80
20174;DHT22;10246;50.620;7.232;2023-07-29T02:49:43;20.30;22.50
20174;DHT22;10246;50.620;7.232;2023-07-29T02:52:10;20.30;22.40
20174;DHT22;10246;50.620;7.232;2023-07-29T02:54:36;20.30;22.10
20174;DHT22;10246;50.620;7.232;2023-07-29T02:57:03;20.30;22.00
20174;DHT22;10246;50.620;7.232;2023-07-29T02:59:30;20.30;22.30
20174;DHT22;10246;50.620;7.232;2023-07-29T03:01:57;20.20;23.10
20174;DHT22;10246;50.620;7.232;2023-07-29T03:04:25;20.10;23.50
20174;DHT22;10246;50.620;7.232;2023-07-29T03:06:51;20.10;24.00
20174;DHT22;10246;50.620;7.232;2023-07-29T03:09:18;20.10;24.00
20174;DHT22;10246;50.620;7.232;2023-07-29T03:11:46;20.10;24.20
20174;DHT22;10246;50.620;7.232;2023-07-29T03:14:13;20.10;24.70
20174;DHT22;10246;50.620;7.232;2023-07-29T03:16:39;20.00;24.60
20174;DHT22;10246;50.620;7.232;2023-07-29T03:19:06;20.10;24.80
20174;DHT22;10246;50.620;7.232;2023-07-29T03:21:34;20.20;24.80
20174;DHT22;10246;50.620;7.232;2023-07-29T03:24:01;20.10;24.70
20174;DHT22;10246;50.620;7.232;2023-07-29T03:26:27;20.20;24.80
20174;DHT22;10246;50.620;7.232;2023-07-29T03:28:54;20.20;24.30
20174;DHT22;10246;50.620;7.232;2023-07-29T03:31:22;20.30;23.80
20174;DHT22;10246;50.620;7.232;2023-07-29T03:33:49;20.10;24.30
20174;DHT22;10246;50.620;7.232;2023-07-29T03:36:15;20.20;24.90
20174;DHT22;10246;50.620;7.232;2023-07-29T03:38:43;20.20;24.60
20174;DHT22;10246;50.620;7.232;2023-07-29T03:41:11;20.20;24.10
20174;DHT22;10246;50.620;7.232;2023-07-29T03:43:37;20.20;24.10
20174;DHT22;10246;50.620;7.232;2023-07-29T03:46:04;20.20;24.00
20174;DHT22;10246;50.620;7.232;2023-07-29T03:48:31;20.20;24.20
20174;DHT22;10246;50.620;7.232;2023-07-29T03:50:57;20.40;22.90
20174;DHT22;10246;50.620;7.232;2023-07-29T03:53:24;20.40;22.50
20174;DHT22;10246;50.620;7.232;2023-07-29T03:55:52;20.30;22.80
20174;DHT22;10246;50.620;7.232;2023-07-29T03:58:19;20.30;23.30
20174;DHT22;10246;50.620;7.232;2023-07-29T04:00:46;20.30;23.40
20174;DHT22;10246;50.620;7.232;2023-07-29T04:03:13;20.20;23.30
20174;DHT22;10246;50.620;7.232;2023-07-29T04:05:42;20.20;23.70
20174;DHT22;10246;50.620;7.232;2023-07-29T04:08:09;20.20;24.60
20174;DHT22;10246;50.620;7.232;2023-07-29T04:10:38;20.20;25.30
20174;DHT22;10246;50.620;7.232;2023-07-29T04:13:06;20.10;25.50
20174;DHT22;10246;50.620;7.232;2023-07-29T04:15:32;20.10;25.80
20174;DHT22;10246;50.620;7.232;2023-07-29T04:18:00;20.10;25.80
20174;DHT22;10246;50.620;7.232;2023-07-29T04:20:27;20.10;26.20
20174;DHT22;10246;50.620;7.232;2023-07-29T04:22:54;20.00;26.20
20174;DHT22;10246;50.620;7.232;2023-07-29T04:25:20;20.00;26.50
20174;DHT22;10246;50.620;7.232;2023-07-29T04:27:47;20.00;26.60
20174;DHT22;10246;50.620;7.232;2023-07-29T04:30:15;19.90;27.30
20174;DHT22;10246;50.620;7.232;2023-07-29T04:32:42;19.90;26.70
20174;DHT22;10246;50.620;7.232;2023-07-29T04:35:10;19.90;26.70
20174;DHT22;10246;50.620;7.232;2023-07-29T04:37:37;19.90;26.90
20174;DHT22;10246;50.620;7.232;2023-07-29T04:40:04;19.90;26.90
20174;DHT22;10246;50.620;7.232;2023-07-29T04:42:31;19.90;27.20
20174;DHT22;10246;50.620;7.232;2023-07-29T04:44:58;19.90;27.30
20174;DHT22;10246;50.620;7.232;2023-07-29T04:47:26;19.80;27.50
20174;DHT22;10246;50.620;7.232;2023-07-29T04:49:53;19.80;28.10
20174;DHT22;10246;50.620;7.232;2023-07-29T04:52:19;19.90;28.20
20174;DHT22;10246;50.620;7.232;2023-07-29T04:54:47;19.90;28.20
20174;DHT22;10246;50.620;7.232;2023-07-29T04:57:14;19.90;28.00
20174;DHT22;10246;50.620;7.232;2023-07-29T04:59:40;19.80;28.20
20174;DHT22;10246;50.620;7.232;2023-07-29T05:02:07;19.80;28.60
20174;DHT22;10246;50.620;7.232;2023-07-29T05:04:35;19.80;29.00
20174;DHT22;10246;50.620;7.232;2023-07-29T05:07:02;19.80;29.00
20174;DHT22;10246;50.620;7.232;2023-07-29T05:09:29;19.80;29.10
20174;DHT22;10246;50.620;7.232;2023-07-29T05:11:55;19.80;29.70
20174;DHT22;10246;50.620;7.232;2023-07-29T05:14:22;19.80;29.00
20174;DHT22;10246;50.620;7.232;2023-07-29T05:16:49;19.80;28.50
20174;DHT22;10246;50.620;7.232;2023-07-29T05:19:16;19.80;28.00
20174;DHT22;10246;50.620;7.232;2023-07-29T05:21:44;19.80;27.80
20174;DHT22;10246;50.620;7.232;2023-07-29T05:24:11;19.80;28.20
20174;DHT22;10246;50.620;7.232;2023-07-29T05:26:38;19.80;28.10
20174;DHT22;10246;50.620;7.232;2023-07-29T05:29:04;19.80;28.60
20174;DHT22;10246;50.620;7.232;2023-07-29T05:31:32;19.90;29.10
20174;DHT22;10246;50.620;7.232;2023-07-29T05:33:59;19.90;29.10
20174;DHT22;10246;50.620;7.232;2023-07-29T05:36:25;19.90;29.60
20174;DHT22;10246;50.620;7.232;2023-07-29T05:38:53;20.00;29.80
20174;DHT22;10246;50.620;7.232;2023-07-29T05:41:20;20.00;29.40
20174;DHT22;10246;50.620;7.232;2023-07-29T05:43:47;20.00;29.70
20174;DHT22;10246;50.620;7.232;2023-07-29T05:46:14;20.00;29.80
20174;DHT22;10246;50.620;7.232;2023-07-29T05:48:40;20.00;29.90
20174;DHT22;10246;50.620;7.232;2023-07-29T05:51:07;20.00;30.30
20174;DHT22;10246;50.620;7.232;2023-07-29T05:53:34;20.00;30.30
20174;DHT22;10246;50.620;7.232;2023-07-29T05:56:02;20.00;30.00
20174;DHT22;10246;50.620;7.232;2023-07-29T05:58:29;20.10;29.40
20174;DHT22;10246;50.620;7.232;2023-07-29T06:00:56;20.10;29.40
20174;DHT22;10246;50.620;7.232;2023-07-29T06:03:23;20.10;29.80
20174;DHT22;10246;50.620;7.232;2023-07-29T06:05:50;20.00;29.40
20174;DHT22;10246;50.620;7.232;2023-07-29T06:08:16;20.00;30.10
20174;DHT22;10246;50.620;7.232;2023-07-29T06:10:43;20.00;30.70
20174;DHT22;10246;50.620;7.232;2023-07-29T06:13:11;20.00;30.80
20174;DHT22;10246;50.620;7.232;2023-07-29T06:15:38;20.00;30.60
20174;DHT22;10246;50.620;7.232;2023-07-29T06:18:04;20.00;30.50
20174;DHT22;10246;50.620;7.232;2023-07-29T06:20:31;20.10;30.20
20174;DHT22;10246;50.620;7.232;2023-07-29T06:22:58;20.10;30.20
20174;DHT22;10246;50.620;7.232;2023-07-29T06:25:25;20.10;30.00
20174;DHT22;10246;50.620;7.232;2023-07-29T06:27:52;20.10;30.30
20174;DHT22;10246;50.620;7.232;2023-07-29T06:30:20;20.10;30.60
20174;DHT22;10246;50.620;7.232;2023-07-29T06:32:46;20.10;30.60
20174;DHT22;10246;50.620;7.232;2023-07-29T06:35:13;20.10;30.50
20174;DHT22;10246;50.620;7.232;2023-07-29T06:37:40;20.10;30.70
20174;DHT22;10246;50.620;7.232;2023-07-29T06:40:07;20.10;30.10
20174;DHT22;10246;50.620;7.232;2023-07-29T06:42:34;20.10;30.50
20174;DHT22;10246;50.620;7.232;2023-07-29T06:45:03;20.20;30.40
20174;DHT22;10246;50.620;7.232;2023-07-29T06:47:31;20.20;30.20
20174;DHT22;10246;50.620;7.232;2023-07-29T06:49:58;20.40;29.60
20174;DHT22;10246;50.620;7.232;2023-07-29T06:52:24;20.40;28.70
20174;DHT22;10246;50.620;7.232;2023-07-29T06:54:51;20.50;27.90
20174;DHT22;10246;50.620;7.232;2023-07-29T06:57:18;20.40;28.20
20174;DHT22;10246;50.620;7.232;2023-07-29T06:59:44;20.40;28.40
20174;DHT22;10246;50.620;7.232;2023-07-29T07:02:11;20.40;28.90
20174;DHT22;10246;50.620;7.232;2023-07-29T07:04:40;20.40;29.40
20174;DHT22;10246;50.620;7.232;2023-07-29T07:07:06;20.50;30.20
20174;DHT22;10246;50.620;7.232;2023-07-29T07:09:33;20.60;29.30
20174;DHT22;10246;50.620;7.232;2023-07-29T07:12:00;20.70;28.40
20174;DHT22;10246;50.620;7.232;2023-07-29T07:14:26;20.80;29.00
20174;DHT22;10246;50.620;7.232;2023-07-29T07:16:53;21.00;24.80
20174;DHT22;10246;50.620;7.232;2023-07-29T07:19:20;21.00;23.90
20174;DHT22;10246;50.620;7.232;2023-07-29T07:21:48;21.10;22.60
20174;DHT22;10246;50.620;7.232;2023-07-29T07:24:15;21.30;20.80
20174;DHT22;10246;50.620;7.232;2023-07-29T07:26:41;21.40;18.80
20174;DHT22;10246;50.620;7.232;2023-07-29T07:29:08;21.60;16.40
20174;DHT22;10246;50.620;7.232;2023-07-29T07:31:35;21.70;15.80
20174;DHT22;10246;50.620;7.232;2023-07-29T07:34:01;21.80;16.40
20174;DHT22;10246;50.620;7.232;2023-07-29T07:36:29;21.80;15.80
20174;DHT22;10246;50.620;7.232;2023-07-29T07:38:57;21.80;15.20
20174;DHT22;10246;50.620;7.232;2023-07-29T07:41:23;21.90;12.40
20174;DHT22;10246;50.620;7.232;2023-07-29T07:43:50;22.00;11.70
20174;DHT22;10246;50.620;7.232;2023-07-29T07:46:17;22.00;9.90
20174;DHT22;10246;50.620;7.232;2023-07-29T07:48:43;22.00;10.80
20174;DHT22;10246;50.620;7.232;2023-07-29T07:51:11;22.00;11.90
20174;DHT22;10246;50.620;7.232;2023-07-29T07:53:38;22.00;11.10
20174;DHT22;10246;50.620;7.232;2023-07-29T07:56:07;22.00;9.20
20174;DHT22;10246;50.620;7.232;2023-07-29T07:58:34;22.10;9.60
20174;DHT22;10246;50.620;7.232;2023-07-29T08:01:01;22.10;11.10
20174;DHT22;10246;50.620;7.232;2023-07-29T08:03:28;22.10;7.40
20174;DHT22;10246;50.620;7.232;2023-07-29T08:05:55;22.10;8.20
20174;DHT22;10246;50.620;7.232;2023-07-29T08:08:22;22.10;8.90
20174;DHT22;10246;50.620;7.232;2023-07-29T08:10:48;22.20;7.50
20174;DHT22;10246;50.620;7.232;2023-07-29T08:13:16;22.30;9.00
20174;DHT22;10246;50.620;7.232;2023-07-29T08:15:46;22.30;3.70
20174;DHT22;10246;50.620;7.232;2023-07-29T08:18:13;22.20;4.10
20174;DHT22;10246;50.620;7.232;2023-07-29T08:20:39;22.20;5.80
20174;DHT22;10246;50.620;7.232;2023-07-29T08:23:06;22.10;4.20
20174;DHT22;10246;50.620;7.232;2023-07-29T08:25:33;22.10;4.70
20174;DHT22;10246;50.620;7.232;2023-07-29T08:28:00;22.00;5.60
20174;DHT22;10246;50.620;7.232;2023-07-29T08:30:28;22.10;3.40
20174;DHT22;10246;50.620;7.232;2023-07-29T08:32:55;22.10;1.60
20174;DHT22;10246;50.620;7.232;2023-07-29T08:35:22;22.10;1.60
20174;DHT22;10246;50.620;7.232;2023-07-29T08:37:49;22.20;2.80
20174;DHT22;10246;50.620;7.232;2023-07-29T08:40:15;22.00;2.80
20174;DHT22;10246;50.620;7.232;2023-07-29T08:42:45;22.00;3.20
20174;DHT22;10246;50.620;7.232;2023-07-29T08:45:13;22.10;2.70
20174;DHT22;10246;50.620;7.232;2023-07-29T08:47:42;22.10;1.60
20174;DHT22;10246;50.620;7.232;2023-07-29T08:50:09;21.90;3.20
20174;DHT22;10246;50.620;7.232;2023-07-29T08:52:36;21.90;3.50
20174;DHT22;10246;50.620;7.232;2023-07-29T08:55:04;21.90;1.00
20174;DHT22;10246;50.620;7.232;2023-07-29T08:57:31;21.90;1.00
20174;DHT22;10246;50.620;7.232;2023-07-29T08:59:58;21.90;1.30
20174;DHT22;10246;50.620;7.232;2023-07-29T09:02:25;21.90;1.00
20174;DHT22;10246;50.620;7.232;2023-07-29T09:04:53;22.00;1.00
20174;DHT22;10246;50.620;7.232;2023-07-29T09:07:20;21.90;1.00
20174;DHT22;10246;50.620;7.232;2023-07-29T09:09:47;22.00;1.40
20174;DHT22;10246;50.620;7.232;2023-07-29T09:12:14;22.00;1.00
20174;DHT22;10246;50.620;7.232;2023-07-29T09:14:40;22.10;1.00
20174;DHT22;10246;50.620;7.232;2023-07-29T09:17:08;22.00;1.00
20174;DHT22;10246;50.620;7.232;2023-07-29T09:19:35;22.00;1.80
20174;DHT22;10246;50.620;7.232;2023-07-29T09:22:03;22.20;1.00
20174;DHT22;10246;50.620;7.232;2023-07-29T09:24:30;22.20;1.00
20174;DHT22;10246;50.620;7.232;2023-07-29T09:26:57;22.20;1.00
20174;DHT22;10246;50.620;7.232;2023-07-29T09:29:28;22.20;1.00
20174;DHT22;10246;50.620;7.232;2023-07-29T09:34:41;22.40;1.00
20174;DHT22;10246;50.620;7.232;2023-07-29T09:37:15;22.40;1.00
20174;DHT22;10246;50.620;7.232;2023-07-29T09:39:45;22.30;1.00
20174;DHT22;10246;50.620;7.232;2023-07-29T09:42:12;22.20;1.00
20174;DHT22;10246;50.620;7.232;2023-07-29T09:44:42;22.10;1.00
20174;DHT22;10246;50.620;7.232;2023-07-29T09:47:09;22.10;1.00
20174;DHT22;10246;50.620;7.232;2023-07-29T09:49:35;22.00;1.80
20174;DHT22;10246;50.620;7.232;2023-07-29T09:52:03;22.00;1.00
20174;DHT22;10246;50.620;7.232;2023-07-29T09:54:32;22.00;1.10
20174;DHT22;10246;50.620;7.232;2023-07-29T09:56:59;22.10;2.00
20174;DHT22;10246;50.620;7.232;2023-07-29T09:59:25;22.10;1.00
20174;DHT22;10246;50.620;7.232;2023-07-29T10:01:52;22.10;1.00
20174;DHT22;10246;50.620;7.232;2023-07-29T10:04:20;22.10;1.30
20174;DHT22;10246;50.620;7.232;2023-07-29T10:06:47;22.20;1.00
20174;DHT22;10246;50.620;7.232;2023-07-29T10:09:14;22.20;1.00
20174;DHT22;10246;50.620;7.232;2023-07-29T10:11:43;22.20;1.00
20174;DHT22;10246;50.620;7.232;2023-07-29T10:14:12;22.20;1.00
20174;DHT22;10246;50.620;7.232;2023-07-29T10:16:40;22.40;1.00
20174;DHT22;10246;50.620;7.232;2023-07-29T10:19:07;22.50;1.00
20174;DHT22;10246;50.620;7.232;2023-07-29T10:21:37;22.50;1.00
20174;DHT22;10246;50.620;7.232;2023-07-29T10:24:08;22.70;1.00
20174;DHT22;10246;50.620;7.232;2023-07-29T10:26:37;22.80;1.00
20174;DHT22;10246;50.620;7.232;2023-07-29T10:29:07;22.90;1.00
20174;DHT22;10246;50.620;7.232;2023-07-29T10:31:37;23.10;1.00
20174;DHT22;10246;50.620;7.232;2023-07-29T10:34:05;23.30;1.00
20174;DHT22;10246;50.620;7.232;2023-07-29T10:36:32;23.40;1.00
20174;DHT22;10246;50.620;7.232;2023-07-29T10:38:59;23.40;1.00
20174;DHT22;10246;50.620;7.232;2023-07-29T10:41:56;23.50;1.00
20174;DHT22;10246;50.620;7.232;2023-07-29T10:44:49;23.80;1.00
20174;DHT22;10246;50.620;7.232;2023-07-29T10:47:18;23.60;1.00
20174;DHT22;10246;50.620;7.232;2023-07-29T10:49:46;23.60;1.00
20174;DHT22;10246;50.620;7.232;2023-07-29T10:52:14;23.70;1.00
20174;DHT22;10246;50.620;7.232;2023-07-29T10:54:42;23.80;1.00
20174;DHT22;10246;50.620;7.232;2023-07-29T10:57:12;23.80;1.00
20174;DHT22;10246;50.620;7.232;2023-07-29T10:59:40;23.70;1.00
20174;DHT22;10246;50.620;7.232;2023-07-29T11:02:17;23.60;1.00
20174;DHT22;10246;50.620;7.232;2023-07-29T11:04:49;23.70;1.00
20174;DHT22;10246;50.620;7.232;2023-07-29T11:07:23;23.60;1.00
20174;DHT22;10246;50.620;7.232;2023-07-29T11:10:00;23.70;1.00
20174;DHT22;10246;50.620;7.232;2023-07-29T11:12:44;23.50;1.00
20174;DHT22;10246;50.620;7.232;2023-07-29T11:15:21;23.40;1.00
20174;DHT22;10246;50.620;7.232;2023-07-29T11:17:50;23.30;1.00
20174;DHT22;10246;50.620;7.232;2023-07-29T11:20:21;23.10;1.00
20174;DHT22;10246;50.620;7.232;2023-07-29T11:22:48;23.00;1.00
20174;DHT22;10246;50.620;7.232;2023-07-29T11:25:16;23.00;1.00
20174;DHT22;10246;50.620;7.232;2023-07-29T11:27:44;22.80;1.00
20174;DHT22;10246;50.620;7.232;2023-07-29T11:30:11;22.50;1.00
20174;DHT22;10246;50.620;7.232;2023-07-29T11:32:40;22.30;1.00
20174;DHT22;10246;50.620;7.232;2023-07-29T11:35:10;22.00;2.40
20174;DHT22;10246;50.620;7.232;2023-07-29T11:37:38;21.70;4.50
20174;DHT22;10246;50.620;7.232;2023-07-29T11:40:06;21.60;4.10
20174;DHT22;10246;50.620;7.232;2023-07-29T11:42:36;21.40;6.30
20174;DHT22;10246;50.620;7.232;2023-07-29T11:45:04;21.30;5.80
20174;DHT22;10246;50.620;7.232;2023-07-29T11:47:32;21.20;8.80
20174;DHT22;10246;50.620;7.232;2023-07-29T11:50:01;21.30;8.80
20174;DHT22;10246;50.620;7.232;2023-07-29T11:52:31;21.40;10.00
20174;DHT22;10246;50.620;7.232;2023-07-29T11:54:59;21.50;11.00
20174;DHT22;10246;50.620;7.232;2023-07-29T11:57:26;21.80;10.90
20174;DHT22;10246;50.620;7.232;2023-07-29T11:59:53;22.00;10.50
20174;DHT22;10246;50.620;7.232;2023-07-29T12:02:20;22.10;8.00
20174;DHT22;10246;50.620;7.232;2023-07-29T12:04:48;22.40;6.60
20174;DHT22;10246;50.620;7.232;2023-07-29T12:07:17;22.60;5.40
20174;DHT22;10246;50.620;7.232;2023-07-29T12:09:46;22.70;1.00
20174;DHT22;10246;50.620;7.232;2023-07-29T12:12:13;22.90;1.90
20174;DHT22;10246;50.620;7.232;2023-07-29T12:14:43;23.20;1.00
20174;DHT22;10246;50.620;7.232;2023-07-29T12:17:10;23.00;1.00
20174;DHT22;10246;50.620;7.232;2023-07-29T12:19:38;23.10;1.00
20174;DHT22;10246;50.620;7.232;2023-07-29T12:22:07;23.20;1.00
20174;DHT22;10246;50.620;7.232;2023-07-29T12:24:36;23.20;1.00
20174;DHT22;10246;50.620;7.232;2023-07-29T12:27:05;23.20;1.00
20174;DHT22;10246;50.620;7.232;2023-07-29T12:29:32;23.20;1.00
20174;DHT22;10246;50.620;7.232;2023-07-29T12:32:00;23.30;1.00
20174;DHT22;10246;50.620;7.232;2023-07-29T12:34:28;23.60;1.00
20174;DHT22;10246;50.620;7.232;2023-07-29T12:36:56;23.80;1.00
20174;DHT22;10246;50.620;7.232;2023-07-29T12:39:25;24.00;1.00
20174;DHT22;10246;50.620;7.232;2023-07-29T12:41:53;24.00;1.00
20174;DHT22;10246;50.620;7.232;2023-07-29T12:44:22;23.90;1.00
20174;DHT22;10246;50.620;7.232;2023-07-29T12:46:49;24.00;1.00
20174;DHT22;10246;50.620;7.232;2023-07-29T12:49:16;24.20;1.00
20174;DHT22;10246;50.620;7.232;2023-07-29T12:51:43;24.50;1.00
20174;DHT22;10246;50.620;7.232;2023-07-29T12:54:10;24.80;1.00
20174;DHT22;10246;50.620;7.232;2023-07-29T12:56:36;25.10;1.00
20174;DHT22;10246;50.620;7.232;2023-07-29T12:59:04;25.30;1.00
20174;DHT22;10246;50.620;7.232;2023-07-29T13:01:32;25.60;1.00
20174;DHT22;10246;50.620;7.232;2023-07-29T13:03:59;25.50;1.00
20174;DHT22;10246;50.620;7.232;2023-07-29T13:06:26;25.70;1.00
20174;DHT22;10246;50.620;7.232;2023-07-29T13:08:52;25.60;1.00
20174;DHT22;10246;50.620;7.232;2023-07-29T13:11:19;25.70;1.00
20174;DHT22;10246;50.620;7.232;2023-07-29T13:13:46;26.00;1.00
20174;DHT22;10246;50.620;7.232;2023-07-29T13:16:13;26.00;1.00
20174;DHT22;10246;50.620;7.232;2023-07-29T13:18:41;26.00;1.00
20174;DHT22;10246;50.620;7.232;2023-07-29T13:21:09;26.10;1.00
20174;DHT22;10246;50.620;7.232;2023-07-29T13:23:36;26.20;1.00
20174;DHT22;10246;50.620;7.232;2023-07-29T13:26:02;26.40;1.00
20174;DHT22;10246;50.620;7.232;2023-07-29T13:28:28;26.60;1.00
20174;DHT22;10246;50.620;7.232;2023-07-29T13:30:55;26.70;1.00
20174;DHT22;10246;50.620;7.232;2023-07-29T13:33:22;27.00;1.00
20174;DHT22;10246;50.620;7.232;2023-07-29T13:35:50;27.20;1.00
20174;DHT22;10246;50.620;7.232;2023-07-29T13:38:17;27.00;1.00
20174;DHT22;10246;50.620;7.232;2023-07-29T13:40:45;26.90;1.00
20174;DHT22;10246;50.620;7.232;2023-07-29T13:43:13;26.70;1.00
20174;DHT22;10246;50.620;7.232;2023-07-29T13:45:42;26.70;1.00
20174;DHT22;10246;50.620;7.232;2023-07-29T13:48:09;26.60;1.00
20174;DHT22;10246;50.620;7.232;2023-07-29T13:50:35;26.50;1.00
20174;DHT22;10246;50.620;7.232;2023-07-29T13:53:03;26.30;1.00
20174;DHT22;10246;50.620;7.232;2023-07-29T13:55:30;25.90;1.00
20174;DHT22;10246;50.620;7.232;2023-07-29T13:57:57;25.60;1.00
20174;DHT22;10246;50.620;7.232;2023-07-29T14:00:23;25.40;1.00
20174;DHT22;10246;50.620;7.232;2023-07-29T14:02:50;25.40;1.00
20174;DHT22;10246;50.620;7.232;2023-07-29T14:05:17;25.20;1.00
20174;DHT22;10246;50.620;7.232;2023-07-29T14:07:44;25.00;1.00
20174;DHT22;10246;50.620;7.232;2023-07-29T14:10:12;24.80;1.00
20174;DHT22;10246;50.620;7.232;2023-07-29T14:12:38;24.60;1.00
20174;DHT22;10246;50.620;7.232;2023-07-29T14:15:07;24.60;1.00
20174;DHT22;10246;50.620;7.232;2023-07-29T14:17:34;24.50;1.00
20174;DHT22;10246;50.620;7.232;2023-07-29T14:20:01;24.30;1.00
20174;DHT22;10246;50.620;7.232;2023-07-29T14:22:28;24.30;1.00
20174;DHT22;10246;50.620;7.232;2023-07-29T14:24:55;24.30;1.00
20174;DHT22;10246;50.620;7.232;2023-07-29T14:27:23;24.20;1.70
20174;DHT22;10246;50.620;7.232;2023-07-29T14:29:52;24.20;2.80
20174;DHT22;10246;50.620;7.232;2023-07-29T14:32:19;24.40;1.10
20174;DHT22;10246;50.620;7.232;2023-07-29T14:34:46;24.60;1.00
20174;DHT22;10246;50.620;7.232;2023-07-29T14:37:12;24.90;1.00
20174;DHT22;10246;50.620;7.232;2023-07-29T14:39:39;25.10;1.00
20174;DHT22;10246;50.620;7.232;2023-07-29T14:42:06;25.40;1.00
20174;DHT22;10246;50.620;7.232;2023-07-29T14:44:34;25.50;1.00
20174;DHT22;10246;50.620;7.232;2023-07-29T14:47:01;25.30;1.00
20174;DHT22;10246;50.620;7.232;2023-07-29T14:49:28;25.20;1.00
20174;DHT22;10246;50.620;7.232;2023-07-29T14:51:54;25.20;1.00
20174;DHT22;10246;50.620;7.232;2023-07-29T14:54:21;25.10;1.00
20174;DHT22;10246;50.620;7.232;2023-07-29T14:56:48;24.90;1.00
20174;DHT22;10246;50.620;7.232;2023-07-29T14:59:15;24.90;1.00
20174;DHT22;10246;50.620;7.232;2023-07-29T15:01:43;24.70;1.00
20174;DHT22;10246;50.620;7.232;2023-07-29T15:04:10;24.60;1.00
20174;DHT22;10246;50.620;7.232;2023-07-29T15:06:36;24.50;1.00
20174;DHT22;10246;50.620;7.232;2023-07-29T15:09:04;24.60;1.00
20174;DHT22;10246;50.620;7.232;2023-07-29T15:11:31;24.70;1.00
20174;DHT22;10246;50.620;7.232;2023-07-29T15:13:58;24.60;1.00
20174;DHT22;10246;50.620;7.232;2023-07-29T15:16:25;24.40;1.00
20174;DHT22;10246;50.620;7.232;2023-07-29T15:18:53;24.30;1.00
20174;DHT22;10246;50.620;7.232;2023-07-29T15:21:20;24.20;1.00
20174;DHT22;10246;50.620;7.232;2023-07-29T15:23:46;24.20;1.00
20174;DHT22;10246;50.620;7.232;2023-07-29T15:26:13;24.30;1.00
20174;DHT22;10246;50.620;7.232;2023-07-29T15:28:40;24.30;1.00
20174;DHT22;10246;50.620;7.232;2023-07-29T15:31:06;24.10;1.00
20174;DHT22;10246;50.620;7.232;2023-07-29T15:33:33;24.00;1.00
20174;DHT22;10246;50.620;7.232;2023-07-29T15:36:02;23.90;1.00
20174;DHT22;10246;50.620;7.232;2023-07-29T15:38:28;24.00;1.00
20174;DHT22;10246;50.620;7.232;2023-07-29T15:40:55;24.00;1.00
20174;DHT22;10246;50.620;7.232;2023-07-29T15:43:22;23.90;1.00